sensor_id;sensor_type;location;lat;lon;timestamp;pressure;altitude;pressure_sealevel;temperature;humidity
6393;BME280;3229;42.674;23.282;2022-08-07T00:01:45;94415.22;;;26.33;52.68
6393;BME280;3229;42.674;23.282;2022-08-07T00:04:12;94415.75;;;26.30;52.51
6393;BME280;3229;42.674;23.282;2022-08-07T00:06:39;94408.59;;;26.25;52.63
6393;BME280;3229;42.674;23.282;2022-08-07T00:09:06;94388.19;;;26.11;52.67
6393;BME280;3229;42.674;23.282;2022-08-07T00:11:34;94410.13;;;26.21;52.83
6393;BME280;3229;42.674;23.282;2022-08-07T00:14:01;94395.59;;;26.14;52.95
6393;BME280;3229;42.674;23.282;2022-08-07T00:16:28;94413.75;;;26.20;52.76
6393;BME280;3229;42.674;23.282;2022-08-07T00:18:55;94415.06;;;26.18;52.99
6393;BME280;3229;42.674;23.282;2022-08-07T00:21:22;94413.63;;;26.10;53.02
6393;BME280;3229;42.674;23.282;2022-08-07T00:23:49;94403.28;;;26.03;52.95
6393;BME280;3229;42.674;23.282;2022-08-07T00:26:18;94390.38;;;25.97;53.02
6393;BME280;3229;42.674;23.282;2022-08-07T00:28:47;94419.13;;;26.09;53.06
6393;BME280;3229;42.674;23.282;2022-08-07T00:31:13;94375.16;;;25.77;53.71
6393;BME280;3229;42.674;23.282;2022-08-07T00:33:40;94411.28;;;25.92;53.93
6393;BME280;3229;42.674;23.282;2022-08-07T00:36:08;94418.09;;;25.93;53.80
6393;BME280;3229;42.674;23.282;2022-08-07T00:38:35;94428.91;;;25.96;53.86
6393;BME280;3229;42.674;23.282;2022-08-07T00:41:05;94432.56;;;25.95;53.73
6393;BME280;3229;42.674;23.282;2022-08-07T00:43:32;94422.28;;;25.94;54.28
6393;BME280;3229;42.674;23.282;2022-08-07T00:46:01;94433.03;;;25.92;54.50
6393;BME280;3229;42.674;23.282;2022-08-07T00:48:28;94425.41;;;25.91;54.68
6393;BME280;3229;42.674;23.282;2022-08-07T00:50:55;94418.81;;;25.88;54.42
6393;BME280;3229;42.674;23.282;2022-08-07T00:53:22;94418.25;;;25.86;54.69
6393;BME280;3229;42.674;23.282;2022-08-07T00:55:49;94382.19;;;25.60;54.85
6393;BME280;3229;42.674;23.282;2022-08-07T00:58:18;94423.66;;;25.80;54.96
6393;BME280;3229;42.674;23.282;2022-08-07T01:00:45;94432.06;;;25.82;55.26
6393;BME280;3229;42.674;23.282;2022-08-07T01:03:14;94429.69;;;25.80;55.00
6393;BME280;3229;42.674;23.282;2022-08-07T01:05:43;94422.53;;;25.75;55.38
6393;BME280;3229;42.674;23.282;2022-08-07T01:08:10;94427.75;;;25.75;55.10
6393;BME280;3229;42.674;23.282;2022-08-07T01:10:37;94423.56;;;25.74;55.23
6393;BME280;3229;42.674;23.282;2022-08-07T01:13:04;94420.38;;;25.72;55.25
6393;BME280;3229;42.674;23.282;2022-08-07T01:15:33;94419.97;;;25.64;55.93
6393;BME280;3229;42.674;23.282;2022-08-07T01:18:00;94423.69;;;25.68;55.19
6393;BME280;3229;42.674;23.282;2022-08-07T01:20:33;94421.59;;;25.65;55.43
6393;BME280;3229;42.674;23.282;2022-08-07T01:23:03;94430.69;;;25.62;55.51
6393;BME280;3229;42.674;23.282;2022-08-07T01:25:31;94434.09;;;25.63;55.51
6393;BME280;3229;42.674;23.282;2022-08-07T01:27:58;94431.94;;;25.60;55.35
6393;BME280;3229;42.674;23.282;2022-08-07T01:30:25;94434.81;;;25.58;55.29
6393;BME280;3229;42.674;23.282;2022-08-07T01:32:53;94433.78;;;25.59;55.18
6393;BME280;3229;42.674;23.282;2022-08-07T01:35:20;94424.25;;;25.53;55.07
6393;BME280;3229;42.674;23.282;2022-08-07T01:37:47;94399.88;;;25.36;55.16
6393;BME280;3229;42.674;23.282;2022-08-07T01:40:18;94433.94;;;25.52;55.48
6393;BME280;3229;42.674;23.282;2022-08-07T01:42:46;94435.19;;;25.50;55.66
6393;BME280;3229;42.674;23.282;2022-08-07T01:45:14;94437.03;;;25.49;55.61
6393;BME280;3229;42.674;23.282;2022-08-07T01:47:41;94444.31;;;25.47;55.45
6393;BME280;3229;42.674;23.282;2022-08-07T01:50:08;94452.41;;;25.46;55.40
6393;BME280;3229;42.674;23.282;2022-08-07T01:52:38;94430.81;;;25.22;55.77
6393;BME280;3229;42.674;23.282;2022-08-07T01:55:07;94456.59;;;25.30;55.76
6393;BME280;3229;42.674;23.282;2022-08-07T01:57:40;94486.38;;;25.41;55.62
6393;BME280;3229;42.674;23.282;2022-08-07T02:00:10;94500.25;;;25.41;55.74
6393;BME280;3229;42.674;23.282;2022-08-07T02:02:42;94505.53;;;25.30;55.61
6393;BME280;3229;42.674;23.282;2022-08-07T02:05:13;94542.81;;;25.48;55.45
6393;BME280;3229;42.674;23.282;2022-08-07T02:07:46;94537.34;;;25.50;55.21
6393;BME280;3229;42.674;23.282;2022-08-07T02:10:16;94537.94;;;25.40;55.95
6393;BME280;3229;42.674;23.282;2022-08-07T02:12:47;94538.03;;;25.45;55.61
6393;BME280;3229;42.674;23.282;2022-08-07T02:15:16;94540.91;;;25.44;55.66
6393;BME280;3229;42.674;23.282;2022-08-07T02:17:46;94549.31;;;25.46;57.38
6393;BME280;3229;42.674;23.282;2022-08-07T02:20:15;94520.22;;;25.31;59.53
6393;BME280;3229;42.674;23.282;2022-08-07T02:22:44;94540.56;;;25.40;59.22
6393;BME280;3229;42.674;23.282;2022-08-07T02:25:13;94544.75;;;25.41;59.55
6393;BME280;3229;42.674;23.282;2022-08-07T02:27:41;94546.00;;;25.39;61.04
6393;BME280;3229;42.674;23.282;2022-08-07T02:30:11;94531.13;;;25.39;62.19
6393;BME280;3229;42.674;23.282;2022-08-07T02:32:39;94488.69;;;25.25;61.37
6393;BME280;3229;42.674;23.282;2022-08-07T02:35:08;94500.66;;;25.50;60.56
6393;BME280;3229;42.674;23.282;2022-08-07T02:37:39;94481.09;;;25.52;60.05
6393;BME280;3229;42.674;23.282;2022-08-07T02:40:08;94463.53;;;25.53;59.89
6393;BME280;3229;42.674;23.282;2022-08-07T02:42:36;94464.09;;;25.55;60.16
6393;BME280;3229;42.674;23.282;2022-08-07T02:45:05;94432.88;;;25.37;59.87
6393;BME280;3229;42.674;23.282;2022-08-07T02:47:35;94468.53;;;25.55;60.17
6393;BME280;3229;42.674;23.282;2022-08-07T02:50:03;94460.75;;;25.60;59.98
6393;BME280;3229;42.674;23.282;2022-08-07T02:52:34;94436.25;;;25.49;59.97
6393;BME280;3229;42.674;23.282;2022-08-07T02:55:06;94459.50;;;25.62;60.41
6393;BME280;3229;42.674;23.282;2022-08-07T02:57:36;94442.19;;;25.44;60.78
6393;BME280;3229;42.674;23.282;2022-08-07T03:00:05;94446.94;;;25.47;61.58
6393;BME280;3229;42.674;23.282;2022-08-07T03:02:36;94463.09;;;25.56;62.32
6393;BME280;3229;42.674;23.282;2022-08-07T03:05:07;94458.63;;;25.57;61.64
6393;BME280;3229;42.674;23.282;2022-08-07T03:07:36;94396.38;;;25.30;61.53
6393;BME280;3229;42.674;23.282;2022-08-07T03:10:04;94430.84;;;25.56;63.80
6393;BME280;3229;42.674;23.282;2022-08-07T03:12:31;94430.03;;;25.55;63.51
6393;BME280;3229;42.674;23.282;2022-08-07T03:15:00;94424.00;;;25.55;63.44
6393;BME280;3229;42.674;23.282;2022-08-07T03:17:28;94431.09;;;25.54;65.00
6393;BME280;3229;42.674;23.282;2022-08-07T03:19:58;94397.41;;;25.29;66.25
6393;BME280;3229;42.674;23.282;2022-08-07T03:22:27;94431.53;;;25.51;66.71
6393;BME280;3229;42.674;23.282;2022-08-07T03:24:54;94440.19;;;25.51;66.84
6393;BME280;3229;42.674;23.282;2022-08-07T03:27:21;94448.28;;;25.50;67.66
6393;BME280;3229;42.674;23.282;2022-08-07T03:29:50;94451.72;;;25.50;67.58
6393;BME280;3229;42.674;23.282;2022-08-07T03:32:25;94448.63;;;25.53;66.51
6393;BME280;3229;42.674;23.282;2022-08-07T03:34:58;94449.28;;;25.61;66.33
6393;BME280;3229;42.674;23.282;2022-08-07T03:37:27;94445.75;;;25.55;65.91
6393;BME280;3229;42.674;23.282;2022-08-07T03:39:55;94448.69;;;25.59;65.52
6393;BME280;3229;42.674;23.282;2022-08-07T03:42:22;94447.91;;;25.58;65.21
6393;BME280;3229;42.674;23.282;2022-08-07T03:44:51;94448.63;;;25.53;65.34
6393;BME280;3229;42.674;23.282;2022-08-07T03:47:18;94455.91;;;25.51;65.63
6393;BME280;3229;42.674;23.282;2022-08-07T03:49:46;94413.75;;;25.19;66.21
6393;BME280;3229;42.674;23.282;2022-08-07T03:52:16;94456.88;;;25.45;66.95
6393;BME280;3229;42.674;23.282;2022-08-07T03:54:44;94448.97;;;25.28;67.07
6393;BME280;3229;42.674;23.282;2022-08-07T03:57:11;94487.25;;;25.46;67.07
6393;BME280;3229;42.674;23.282;2022-08-07T03:59:39;94484.00;;;25.39;67.94
6393;BME280;3229;42.674;23.282;2022-08-07T04:02:07;94490.81;;;25.40;68.40
6393;BME280;3229;42.674;23.282;2022-08-07T04:04:34;94488.41;;;25.39;68.46
6393;BME280;3229;42.674;23.282;2022-08-07T04:07:01;94485.00;;;25.38;68.34
6393;BME280;3229;42.674;23.282;2022-08-07T04:09:30;94487.53;;;25.33;68.74
6393;BME280;3229;42.674;23.282;2022-08-07T04:11:58;94484.91;;;25.33;68.99
6393;BME280;3229;42.674;23.282;2022-08-07T04:14:26;94474.69;;;25.32;68.85
6393;BME280;3229;42.674;23.282;2022-08-07T04:16:53;94480.63;;;25.27;68.89
6393;BME280;3229;42.674;23.282;2022-08-07T04:19:20;94481.66;;;25.26;68.97
6393;BME280;3229;42.674;23.282;2022-08-07T04:21:49;94485.88;;;25.27;69.31
6393;BME280;3229;42.674;23.282;2022-08-07T04:24:17;94482.47;;;25.26;69.16
6393;BME280;3229;42.674;23.282;2022-08-07T04:26:46;94490.84;;;25.28;69.02
6393;BME280;3229;42.674;23.282;2022-08-07T04:29:13;94495.53;;;25.26;68.91
6393;BME280;3229;42.674;23.282;2022-08-07T04:31:40;94500.28;;;25.30;68.82
6393;BME280;3229;42.674;23.282;2022-08-07T04:34:08;94495.84;;;25.30;69.41
6393;BME280;3229;42.674;23.282;2022-08-07T04:36:35;94490.63;;;25.30;69.28
6393;BME280;3229;42.674;23.282;2022-08-07T04:39:04;94502.44;;;25.33;69.19
6393;BME280;3229;42.674;23.282;2022-08-07T04:41:31;94471.16;;;25.09;68.34
6393;BME280;3229;42.674;23.282;2022-08-07T04:44:00;94514.28;;;25.35;68.16
6393;BME280;3229;42.674;23.282;2022-08-07T04:46:32;94513.72;;;25.33;68.22
6393;BME280;3229;42.674;23.282;2022-08-07T04:49:08;94499.75;;;25.27;68.69
6393;BME280;3229;42.674;23.282;2022-08-07T04:51:46;94504.03;;;25.34;68.50
6393;BME280;3229;42.674;23.282;2022-08-07T04:54:19;94510.63;;;25.36;68.72
6393;BME280;3229;42.674;23.282;2022-08-07T04:56:51;94519.28;;;25.37;69.34
6393;BME280;3229;42.674;23.282;2022-08-07T04:59:28;94519.28;;;25.37;69.03
6393;BME280;3229;42.674;23.282;2022-08-07T05:02:02;94495.31;;;25.28;69.35
6393;BME280;3229;42.674;23.282;2022-08-07T05:04:34;94499.50;;;25.29;68.88
6393;BME280;3229;42.674;23.282;2022-08-07T05:07:10;94523.91;;;25.46;68.81
6393;BME280;3229;42.674;23.282;2022-08-07T05:09:43;94518.22;;;25.49;68.43
6393;BME280;3229;42.674;23.282;2022-08-07T05:12:15;94538.31;;;25.61;68.34
6393;BME280;3229;42.674;23.282;2022-08-07T05:14:47;94529.97;;;25.64;67.45
6393;BME280;3229;42.674;23.282;2022-08-07T05:17:18;94539.75;;;25.68;67.19
6393;BME280;3229;42.674;23.282;2022-08-07T05:19:49;94477.31;;;25.32;66.99
6393;BME280;3229;42.674;23.282;2022-08-07T05:22:19;94485.34;;;25.42;66.63
6393;BME280;3229;42.674;23.282;2022-08-07T05:24:48;94533.31;;;25.88;66.83
6393;BME280;3229;42.674;23.282;2022-08-07T05:27:16;94521.38;;;25.80;66.79
6393;BME280;3229;42.674;23.282;2022-08-07T05:29:48;94527.34;;;25.92;66.49
6393;BME280;3229;42.674;23.282;2022-08-07T05:32:18;94525.78;;;26.08;66.75
6393;BME280;3229;42.674;23.282;2022-08-07T05:34:49;94536.03;;;26.26;66.80
6393;BME280;3229;42.674;23.282;2022-08-07T05:37:17;94531.59;;;26.44;66.39
6393;BME280;3229;42.674;23.282;2022-08-07T05:39:45;94531.31;;;26.62;65.53
6393;BME280;3229;42.674;23.282;2022-08-07T05:42:13;94545.22;;;26.80;65.35
6393;BME280;3229;42.674;23.282;2022-08-07T05:44:40;94547.84;;;27.01;63.48
6393;BME280;3229;42.674;23.282;2022-08-07T05:47:09;94546.25;;;27.17;62.96
6393;BME280;3229;42.674;23.282;2022-08-07T05:49:37;94529.50;;;27.23;61.82
6393;BME280;3229;42.674;23.282;2022-08-07T05:52:05;94562.66;;;27.51;62.24
6393;BME280;3229;42.674;23.282;2022-08-07T05:54:32;94565.47;;;27.72;58.73
6393;BME280;3229;42.674;23.282;2022-08-07T05:57:00;94549.97;;;27.70;59.67
6393;BME280;3229;42.674;23.282;2022-08-07T05:59:28;94569.69;;;27.95;59.85
6393;BME280;3229;42.674;23.282;2022-08-07T06:01:57;94524.56;;;27.54;58.81
6393;BME280;3229;42.674;23.282;2022-08-07T06:04:26;94519.22;;;27.71;58.67
6393;BME280;3229;42.674;23.282;2022-08-07T06:06:54;94581.25;;;28.26;57.62
6393;BME280;3229;42.674;23.282;2022-08-07T06:09:21;94580.44;;;28.20;57.78
6393;BME280;3229;42.674;23.282;2022-08-07T06:11:48;94588.13;;;28.32;57.55
6393;BME280;3229;42.674;23.282;2022-08-07T06:14:15;94583.03;;;28.47;56.55
6393;BME280;3229;42.674;23.282;2022-08-07T06:16:45;94572.06;;;28.61;56.42
6393;BME280;3229;42.674;23.282;2022-08-07T06:19:13;94576.63;;;28.75;55.79
6393;BME280;3229;42.674;23.282;2022-08-07T06:21:42;94579.84;;;28.83;54.49
6393;BME280;3229;42.674;23.282;2022-08-07T06:24:09;94581.56;;;28.99;54.39
6393;BME280;3229;42.674;23.282;2022-08-07T06:26:38;94547.00;;;28.95;53.54
6393;BME280;3229;42.674;23.282;2022-08-07T06:29:07;94577.19;;;29.25;53.24
6393;BME280;3229;42.674;23.282;2022-08-07T06:31:34;94583.06;;;29.37;52.79
6393;BME280;3229;42.674;23.282;2022-08-07T06:34:01;94544.00;;;29.19;51.67
6393;BME280;3229;42.674;23.282;2022-08-07T06:36:28;94574.44;;;29.57;51.64
6393;BME280;3229;42.674;23.282;2022-08-07T06:38:56;94536.44;;;29.53;50.60
6393;BME280;3229;42.674;23.282;2022-08-07T06:41:27;94579.53;;;29.89;50.51
6393;BME280;3229;42.674;23.282;2022-08-07T06:43:57;94579.81;;;30.03;49.36
6393;BME280;3229;42.674;23.282;2022-08-07T06:46:25;94576.19;;;30.14;49.78
6393;BME280;3229;42.674;23.282;2022-08-07T06:48:52;94571.41;;;30.16;49.24
6393;BME280;3229;42.674;23.282;2022-08-07T06:51:22;94546.59;;;30.07;49.59
6393;BME280;3229;42.674;23.282;2022-08-07T06:53:52;94569.84;;;30.15;49.64
6393;BME280;3229;42.674;23.282;2022-08-07T06:56:23;94573.81;;;30.33;49.62
6393;BME280;3229;42.674;23.282;2022-08-07T06:59:20;94568.00;;;30.36;49.25
6393;BME280;3229;42.674;23.282;2022-08-07T07:01:48;94571.94;;;30.59;48.47
6393;BME280;3229;42.674;23.282;2022-08-07T07:04:17;94575.09;;;30.66;48.56
6393;BME280;3229;42.674;23.282;2022-08-07T07:06:44;94580.63;;;30.70;48.33
6393;BME280;3229;42.674;23.282;2022-08-07T07:09:18;94571.16;;;30.59;47.72
6393;BME280;3229;42.674;23.282;2022-08-07T07:12:03;94578.53;;;30.82;47.16
6393;BME280;3229;42.674;23.282;2022-08-07T07:14:48;94572.44;;;30.92;47.24
6393;BME280;3229;42.674;23.282;2022-08-07T07:17:21;94591.16;;;31.11;47.18
6393;BME280;3229;42.674;23.282;2022-08-07T07:19:53;94555.56;;;30.88;46.71
6393;BME280;3229;42.674;23.282;2022-08-07T07:22:22;94586.88;;;31.25;45.89
6393;BME280;3229;42.674;23.282;2022-08-07T07:24:50;94583.94;;;31.42;46.19
6393;BME280;3229;42.674;23.282;2022-08-07T07:27:20;94584.69;;;31.53;45.93
6393;BME280;3229;42.674;23.282;2022-08-07T07:29:53;94588.16;;;31.48;44.88
6393;BME280;3229;42.674;23.282;2022-08-07T07:32:23;94587.56;;;31.61;44.68
6393;BME280;3229;42.674;23.282;2022-08-07T07:34:52;94557.94;;;31.59;44.81
6393;BME280;3229;42.674;23.282;2022-08-07T07:37:22;94589.34;;;31.71;43.55
6393;BME280;3229;42.674;23.282;2022-08-07T07:39:52;94584.91;;;31.61;43.76
6393;BME280;3229;42.674;23.282;2022-08-07T07:42:21;94585.53;;;31.38;44.12
6393;BME280;3229;42.674;23.282;2022-08-07T07:44:52;94591.25;;;31.55;44.03
6393;BME280;3229;42.674;23.282;2022-08-07T07:47:22;94538.00;;;31.22;43.71
6393;BME280;3229;42.674;23.282;2022-08-07T07:49:51;94595.16;;;31.68;42.65
6393;BME280;3229;42.674;23.282;2022-08-07T07:52:20;94592.38;;;31.49;43.21
6393;BME280;3229;42.674;23.282;2022-08-07T07:54:50;94576.78;;;31.42;42.88
6393;BME280;3229;42.674;23.282;2022-08-07T07:57:19;94572.06;;;31.29;42.79
6393;BME280;3229;42.674;23.282;2022-08-07T07:59:50;94592.09;;;31.45;42.56
6393;BME280;3229;42.674;23.282;2022-08-07T08:02:18;94591.84;;;31.52;42.66
6393;BME280;3229;42.674;23.282;2022-08-07T08:04:47;94601.91;;;31.40;42.97
6393;BME280;3229;42.674;23.282;2022-08-07T08:07:14;94560.00;;;30.97;42.60
6393;BME280;3229;42.674;23.282;2022-08-07T08:09:42;94599.03;;;31.21;43.72
6393;BME280;3229;42.674;23.282;2022-08-07T08:12:10;94587.72;;;31.05;43.83
6393;BME280;3229;42.674;23.282;2022-08-07T08:14:37;94599.03;;;31.36;43.71
6393;BME280;3229;42.674;23.282;2022-08-07T08:17:08;94611.94;;;31.43;43.92
6393;BME280;3229;42.674;23.282;2022-08-07T08:19:38;94607.69;;;31.52;43.69
6393;BME280;3229;42.674;23.282;2022-08-07T08:22:09;94614.63;;;31.28;44.43
6393;BME280;3229;42.674;23.282;2022-08-07T08:24:55;94605.19;;;30.96;44.79
6393;BME280;3229;42.674;23.282;2022-08-07T08:27:41;94608.31;;;31.13;44.83
6393;BME280;3229;42.674;23.282;2022-08-07T08:30:11;94601.16;;;31.24;44.28
6393;BME280;3229;42.674;23.282;2022-08-07T08:32:46;94594.25;;;31.43;43.53
6393;BME280;3229;42.674;23.282;2022-08-07T08:35:18;94605.31;;;31.51;43.94
6393;BME280;3229;42.674;23.282;2022-08-07T08:37:47;94601.81;;;31.60;43.46
6393;BME280;3229;42.674;23.282;2022-08-07T08:40:21;94608.94;;;31.70;43.05
6393;BME280;3229;42.674;23.282;2022-08-07T08:42:56;94562.22;;;31.50;42.95
6393;BME280;3229;42.674;23.282;2022-08-07T08:45:32;94605.75;;;31.68;43.07
6393;BME280;3229;42.674;23.282;2022-08-07T08:48:08;94591.72;;;31.72;42.35
6393;BME280;3229;42.674;23.282;2022-08-07T08:50:44;94595.13;;;31.78;42.87
6393;BME280;3229;42.674;23.282;2022-08-07T08:53:18;94618.94;;;31.83;42.52
6393;BME280;3229;42.674;23.282;2022-08-07T08:55:53;94603.56;;;31.85;42.38
6393;BME280;3229;42.674;23.282;2022-08-07T08:58:31;94611.47;;;31.95;42.25
6393;BME280;3229;42.674;23.282;2022-08-07T09:01:07;94616.47;;;31.97;42.38
6393;BME280;3229;42.674;23.282;2022-08-07T09:03:46;94600.13;;;31.85;42.00
6393;BME280;3229;42.674;23.282;2022-08-07T09:06:23;94608.91;;;31.75;43.04
6393;BME280;3229;42.674;23.282;2022-08-07T09:08:59;94599.88;;;31.81;42.29
6393;BME280;3229;42.674;23.282;2022-08-07T09:11:34;94594.56;;;31.86;42.18
6393;BME280;3229;42.674;23.282;2022-08-07T09:14:10;94612.03;;;31.87;42.34
6393;BME280;3229;42.674;23.282;2022-08-07T09:16:47;94562.50;;;31.48;42.81
6393;BME280;3229;42.674;23.282;2022-08-07T09:19:21;94604.66;;;31.84;42.78
6393;BME280;3229;42.674;23.282;2022-08-07T09:22:01;94590.63;;;31.79;42.97
6393;BME280;3229;42.674;23.282;2022-08-07T09:24:41;94594.88;;;31.75;42.74
6393;BME280;3229;42.674;23.282;2022-08-07T09:27:22;94555.38;;;31.44;42.56
6393;BME280;3229;42.674;23.282;2022-08-07T09:29:56;94593.06;;;31.65;42.82
6393;BME280;3229;42.674;23.282;2022-08-07T09:32:45;94583.09;;;31.57;42.88
6393;BME280;3229;42.674;23.282;2022-08-07T09:35:27;94572.59;;;31.36;42.89
6393;BME280;3229;42.674;23.282;2022-08-07T09:38:14;94564.06;;;31.50;42.47
6393;BME280;3229;42.674;23.282;2022-08-07T09:41:02;94558.06;;;31.29;42.78
6393;BME280;3229;42.674;23.282;2022-08-07T09:43:51;94570.75;;;31.32;42.67
6393;BME280;3229;42.674;23.282;2022-08-07T09:46:31;94574.41;;;31.41;42.93
6393;BME280;3229;42.674;23.282;2022-08-07T09:49:14;94570.75;;;31.37;42.89
6393;BME280;3229;42.674;23.282;2022-08-07T09:51:57;94574.69;;;31.44;41.78
6393;BME280;3229;42.674;23.282;2022-08-07T09:54:39;94565.41;;;31.42;41.89
6393;BME280;3229;42.674;23.282;2022-08-07T10:00:04;94573.31;;;31.52;42.67
6393;BME280;3229;42.674;23.282;2022-08-07T10:02:54;94563.84;;;31.41;42.42
6393;BME280;3229;42.674;23.282;2022-08-07T10:05:32;94558.88;;;31.29;42.52
6393;BME280;3229;42.674;23.282;2022-08-07T10:08:25;94554.66;;;31.28;42.35
6393;BME280;3229;42.674;23.282;2022-08-07T10:11:04;94560.22;;;31.16;41.65
6393;BME280;3229;42.674;23.282;2022-08-07T10:13:48;94541.53;;;30.92;41.73
6393;BME280;3229;42.674;23.282;2022-08-07T10:16:37;94546.81;;;30.97;42.05
6393;BME280;3229;42.674;23.282;2022-08-07T10:22:21;94544.69;;;30.94;41.24
6393;BME280;3229;42.674;23.282;2022-08-07T10:25:05;94548.19;;;30.75;42.02
6393;BME280;3229;42.674;23.282;2022-08-07T10:30:29;94521.78;;;30.54;42.96
6393;BME280;3229;42.674;23.282;2022-08-07T10:33:16;94545.28;;;30.66;42.96
6393;BME280;3229;42.674;23.282;2022-08-07T10:35:54;94551.88;;;30.73;42.73
6393;BME280;3229;42.674;23.282;2022-08-07T10:38:40;94559.25;;;30.66;42.53
6393;BME280;3229;42.674;23.282;2022-08-07T10:41:14;94533.41;;;30.17;43.84
6393;BME280;3229;42.674;23.282;2022-08-07T10:43:46;94533.69;;;30.16;44.02
6393;BME280;3229;42.674;23.282;2022-08-07T10:46:17;94549.53;;;30.21;44.65
6393;BME280;3229;42.674;23.282;2022-08-07T10:48:54;94545.03;;;30.37;44.08
6393;BME280;3229;42.674;23.282;2022-08-07T10:51:30;94489.88;;;29.99;44.64
6393;BME280;3229;42.674;23.282;2022-08-07T10:54:07;94506.53;;;30.15;44.13
6393;BME280;3229;42.674;23.282;2022-08-07T10:56:45;94501.75;;;30.02;44.46
6393;BME280;3229;42.674;23.282;2022-08-07T10:59:23;94541.34;;;30.22;44.42
6393;BME280;3229;42.674;23.282;2022-08-07T11:01:56;94544.25;;;30.16;45.01
6393;BME280;3229;42.674;23.282;2022-08-07T11:04:36;94550.84;;;30.34;44.56
6393;BME280;3229;42.674;23.282;2022-08-07T11:07:16;94545.03;;;30.37;44.57
6393;BME280;3229;42.674;23.282;2022-08-07T11:09:51;94532.91;;;30.20;45.07
6393;BME280;3229;42.674;23.282;2022-08-07T11:12:27;94546.34;;;30.29;44.32
6393;BME280;3229;42.674;23.282;2022-08-07T11:14:59;94550.59;;;30.15;44.75
6393;BME280;3229;42.674;23.282;2022-08-07T11:17:33;94538.91;;;30.00;44.96
6393;BME280;3229;42.674;23.282;2022-08-07T11:20:10;94536.31;;;30.06;45.42
6393;BME280;3229;42.674;23.282;2022-08-07T11:22:54;94540.81;;;30.26;44.96
6393;BME280;3229;42.674;23.282;2022-08-07T11:25:29;94527.63;;;30.26;45.51
6393;BME280;3229;42.674;23.282;2022-08-07T11:28:07;94528.94;;;30.38;45.02
6393;BME280;3229;42.674;23.282;2022-08-07T11:30:46;94528.41;;;30.36;45.04
6393;BME280;3229;42.674;23.282;2022-08-07T11:33:22;94537.38;;;30.10;44.63
6393;BME280;3229;42.674;23.282;2022-08-07T11:35:58;94542.16;;;30.23;44.03
6393;BME280;3229;42.674;23.282;2022-08-07T11:38:38;94539.47;;;30.13;43.60
6393;BME280;3229;42.674;23.282;2022-08-07T11:41:11;94553.44;;;29.98;45.50
6393;BME280;3229;42.674;23.282;2022-08-07T11:43:51;94532.06;;;29.89;45.74
6393;BME280;3229;42.674;23.282;2022-08-07T11:46:37;94537.31;;;29.74;46.70
6393;BME280;3229;42.674;23.282;2022-08-07T11:49:41;94556.81;;;29.73;47.35
6393;BME280;3229;42.674;23.282;2022-08-07T11:52:32;94540.22;;;29.67;46.85
6393;BME280;3229;42.674;23.282;2022-08-07T11:55:23;94552.88;;;29.76;46.59
6393;BME280;3229;42.674;23.282;2022-08-07T11:58:04;94548.41;;;29.81;46.95
6393;BME280;3229;42.674;23.282;2022-08-07T12:00:44;94521.38;;;29.33;47.91
6393;BME280;3229;42.674;23.282;2022-08-07T12:03:35;94545.66;;;29.45;48.70
6393;BME280;3229;42.674;23.282;2022-08-07T12:06:21;94547.63;;;29.76;48.10
6393;BME280;3229;42.674;23.282;2022-08-07T12:08:54;94548.69;;;29.90;47.72
6393;BME280;3229;42.674;23.282;2022-08-07T12:11:26;94548.44;;;30.02;47.73
6393;BME280;3229;42.674;23.282;2022-08-07T12:14:04;94551.59;;;30.09;47.63
6393;BME280;3229;42.674;23.282;2022-08-07T12:16:41;94548.94;;;30.09;47.83
6393;BME280;3229;42.674;23.282;2022-08-07T12:19:17;94546.31;;;30.04;47.72
6393;BME280;3229;42.674;23.282;2022-08-07T12:21:51;94552.16;;;30.21;47.67
6393;BME280;3229;42.674;23.282;2022-08-07T12:24:26;94557.97;;;30.28;47.33
6393;BME280;3229;42.674;23.282;2022-08-07T12:27:03;94551.88;;;30.17;47.00
6393;BME280;3229;42.674;23.282;2022-08-07T12:29:40;94547.16;;;30.24;47.13
6393;BME280;3229;42.674;23.282;2022-08-07T12:32:14;94554.28;;;30.19;47.05
6393;BME280;3229;42.674;23.282;2022-08-07T12:34:43;94536.59;;;30.19;46.41
6393;BME280;3229;42.674;23.282;2022-08-07T12:37:12;94531.34;;;30.14;46.94
6393;BME280;3229;42.674;23.282;2022-08-07T12:39:44;94521.78;;;30.08;46.89
6393;BME280;3229;42.674;23.282;2022-08-07T12:42:14;94532.91;;;30.15;47.08
6393;BME280;3229;42.674;23.282;2022-08-07T12:44:45;94523.38;;;30.04;48.02
6393;BME280;3229;42.674;23.282;2022-08-07T12:47:21;94524.16;;;29.99;47.92
6393;BME280;3229;42.674;23.282;2022-08-07T12:49:54;94508.06;;;29.91;47.63
6393;BME280;3229;42.674;23.282;2022-08-07T12:52:30;94525.50;;;30.07;47.81
6393;BME280;3229;42.674;23.282;2022-08-07T12:55:04;94511.75;;;29.95;46.05
6393;BME280;3229;42.674;23.282;2022-08-07T12:57:36;94504.38;;;29.82;45.69
6393;BME280;3229;42.674;23.282;2022-08-07T13:00:06;94512.81;;;29.89;45.41
6393;BME280;3229;42.674;23.282;2022-08-07T13:02:48;94523.91;;;30.01;45.83
6393;BME280;3229;42.674;23.282;2022-08-07T13:05:35;94518.88;;;30.05;45.54
6393;BME280;3229;42.674;23.282;2022-08-07T13:08:19;94514.66;;;29.83;45.85
6393;BME280;3229;42.674;23.282;2022-08-07T13:10:57;94524.16;;;29.84;45.95
6393;BME280;3229;42.674;23.282;2022-08-07T13:13:35;94513.63;;;29.89;45.98
6393;BME280;3229;42.674;23.282;2022-08-07T13:16:10;94521.78;;;29.88;45.64
6393;BME280;3229;42.674;23.282;2022-08-07T13:18:49;94515.44;;;29.63;46.13
6393;BME280;3229;42.674;23.282;2022-08-07T13:21:21;94507.53;;;29.73;44.72
6393;BME280;3229;42.674;23.282;2022-08-07T13:23:54;94489.84;;;29.64;43.60
6393;BME280;3229;42.674;23.282;2022-08-07T13:26:30;94497.50;;;29.60;43.88
6393;BME280;3229;42.674;23.282;2022-08-07T13:29:06;94508.31;;;29.69;45.27
6393;BME280;3229;42.674;23.282;2022-08-07T13:31:41;94511.78;;;29.80;45.22
6393;BME280;3229;42.674;23.282;2022-08-07T13:34:15;94511.75;;;29.90;45.08
6393;BME280;3229;42.674;23.282;2022-08-07T13:36:51;94502.78;;;29.96;43.98
6393;BME280;3229;42.674;23.282;2022-08-07T13:39:28;94512.03;;;29.93;44.57
6393;BME280;3229;42.674;23.282;2022-08-07T13:42:00;94508.34;;;29.89;44.27
6393;BME280;3229;42.674;23.282;2022-08-07T13:44:31;94501.50;;;29.88;44.67
6393;BME280;3229;42.674;23.282;2022-08-07T13:47:00;94504.63;;;29.95;44.88